sensor_id;sensor_type;location;lat;lon;timestamp;pressure;altitude;pressure_sealevel;temperature;humidity
49341;BME280;35209;51.050;13.678;2022-12-17T00:04:43;100347.53;;;-4.35;88.69
49341;BME280;35209;51.050;13.678;2022-12-17T00:10:03;100339.22;;;-4.27;88.03
49341;BME280;35209;51.050;13.678;2022-12-17T00:15:24;100345.13;;;-4.30;88.21
49341;BME280;35209;51.050;13.678;2022-12-17T00:20:51;100347.53;;;-4.35;89.01
49341;BME280;35209;51.050;13.678;2022-12-17T00:26:12;100343.81;;;-4.43;89.47
49341;BME280;35209;51.050;13.678;2022-12-17T00:31:32;100347.53;;;-4.08;87.37
49341;BME280;35209;51.050;13.678;2022-12-17T00:36:56;100358.06;;;-4.27;88.94
49341;BME280;35209;51.050;13.678;2022-12-17T00:42:18;100365.56;;;-4.33;89.97
49341;BME280;35209;51.050;13.678;2022-12-17T00:47:38;100367.09;;;-4.38;90.22
49341;BME280;35209;51.050;13.678;2022-12-17T00:52:58;100381.69;;;-4.37;90.67
49341;BME280;35209;51.050;13.678;2022-12-17T00:58:18;100387.13;;;-4.28;88.76
49341;BME280;35209;51.050;13.678;2022-12-17T01:03:39;100397.72;;;-4.43;91.06
49341;BME280;35209;51.050;13.678;2022-12-17T01:08:59;100399.69;;;-4.36;89.69
49341;BME280;35209;51.050;13.678;2022-12-17T01:14:22;100395.69;;;-4.27;89.38
49341;BME280;35209;51.050;13.678;2022-12-17T01:19:42;100395.41;;;-4.10;87.76
49341;BME280;35209;51.050;13.678;2022-12-17T01:25:03;100408.25;;;-4.35;89.19
49341;BME280;35209;51.050;13.678;2022-12-17T01:30:23;100408.81;;;-4.18;89.21
49341;BME280;35209;51.050;13.678;2022-12-17T01:35:44;100420.47;;;-4.28;89.67
49341;BME280;35209;51.050;13.678;2022-12-17T01:41:05;100425.81;;;-4.22;88.53
49341;BME280;35209;51.050;13.678;2022-12-17T01:46:26;100419.91;;;-4.19;89.16
49341;BME280;35209;51.050;13.678;2022-12-17T01:51:50;100424.63;;;-4.32;89.56
49341;BME280;35209;51.050;13.678;2022-12-17T01:57:11;100426.38;;;-4.31;90.11
49341;BME280;35209;51.050;13.678;2022-12-17T02:02:31;100429.91;;;-4.27;89.86
49341;BME280;35209;51.050;13.678;2022-12-17T02:08:05;100433.06;;;-4.10;89.45
49341;BME280;35209;51.050;13.678;2022-12-17T02:13:35;100432.19;;;-4.11;89.92
49341;BME280;35209;51.050;13.678;2022-12-17T02:19:06;100438.53;;;-4.50;92.27
49341;BME280;35209;51.050;13.678;2022-12-17T02:24:38;100442.78;;;-4.25;91.50
49341;BME280;35209;51.050;13.678;2022-12-17T02:30:05;100436.38;;;-4.13;90.17
49341;BME280;35209;51.050;13.678;2022-12-17T02:35:31;100436.69;;;-4.03;90.16
49341;BME280;35209;51.050;13.678;2022-12-17T02:40:52;100444.97;;;-4.38;91.44
49341;BME280;35209;51.050;13.678;2022-12-17T02:46:14;100449.59;;;-4.27;91.72
49341;BME280;35209;51.050;13.678;2022-12-17T02:51:34;100448.25;;;-4.16;90.66
49341;BME280;35209;51.050;13.678;2022-12-17T02:56:55;100457.78;;;-4.12;91.54
49341;BME280;35209;51.050;13.678;2022-12-17T03:02:15;100464.03;;;-4.29;91.27
49341;BME280;35209;51.050;13.678;2022-12-17T03:07:36;100461.53;;;-4.28;91.99
49341;BME280;35209;51.050;13.678;2022-12-17T03:12:57;100466.56;;;-4.31;93.01
49341;BME280;35209;51.050;13.678;2022-12-17T03:18:34;100470.19;;;-4.00;92.44
49341;BME280;35209;51.050;13.678;2022-12-17T03:23:56;100473.91;;;-4.16;92.46
49341;BME280;35209;51.050;13.678;2022-12-17T03:29:16;100480.53;;;-4.23;93.31
49341;BME280;35209;51.050;13.678;2022-12-17T03:34:37;100480.09;;;-4.11;92.66
49341;BME280;35209;51.050;13.678;2022-12-17T03:39:56;100482.66;;;-4.11;92.14
49341;BME280;35209;51.050;13.678;2022-12-17T03:45:17;100481.75;;;-3.88;91.09
49341;BME280;35209;51.050;13.678;2022-12-17T03:50:39;100486.34;;;-3.77;90.55
49341;BME280;35209;51.050;13.678;2022-12-17T03:55:59;100490.31;;;-3.87;91.64
49341;BME280;35209;51.050;13.678;2022-12-17T04:01:19;100486.53;;;-3.98;92.46
49341;BME280;35209;51.050;13.678;2022-12-17T04:06:40;100490.63;;;-3.78;91.65
49341;BME280;35209;51.050;13.678;2022-12-17T04:12:14;100501.00;;;-3.75;91.51
49341;BME280;35209;51.050;13.678;2022-12-17T04:17:34;100513.22;;;-3.93;92.33
49341;BME280;35209;51.050;13.678;2022-12-17T04:22:54;100520.75;;;-3.72;91.58
49341;BME280;35209;51.050;13.678;2022-12-17T04:28:15;100528.66;;;-3.93;91.87
49341;BME280;35209;51.050;13.678;2022-12-17T04:33:35;100535.88;;;-3.82;93.29
49341;BME280;35209;51.050;13.678;2022-12-17T04:38:55;100541.13;;;-3.78;93.39
49341;BME280;35209;51.050;13.678;2022-12-17T04:44:15;100545.19;;;-3.60;91.95
49341;BME280;35209;51.050;13.678;2022-12-17T04:49:36;100549.41;;;-3.62;91.81
49341;BME280;35209;51.050;13.678;2022-12-17T04:54:55;100552.16;;;-3.81;92.25
49341;BME280;35209;51.050;13.678;2022-12-17T05:00:16;100542.09;;;-3.75;93.05
49341;BME280;35209;51.050;13.678;2022-12-17T05:05:36;100556.22;;;-3.88;93.48
49341;BME280;35209;51.050;13.678;2022-12-17T05:11:01;100549.44;;;-3.86;93.21
49341;BME280;35209;51.050;13.678;2022-12-17T05:16:22;100567.25;;;-3.66;92.74
49341;BME280;35209;51.050;13.678;2022-12-17T05:21:42;100571.50;;;-3.67;91.55
49341;BME280;35209;51.050;13.678;2022-12-17T05:27:02;100577.38;;;-3.95;95.06
49341;BME280;35209;51.050;13.678;2022-12-17T05:32:23;100596.16;;;-3.96;94.58
49341;BME280;35209;51.050;13.678;2022-12-17T05:37:43;100603.88;;;-3.96;95.75
49341;BME280;35209;51.050;13.678;2022-12-17T05:43:05;100608.03;;;-3.75;94.77
49341;BME280;35209;51.050;13.678;2022-12-17T05:48:26;100609.72;;;-3.76;93.37
49341;BME280;35209;51.050;13.678;2022-12-17T05:53:46;100610.63;;;-3.74;93.98
49341;BME280;35209;51.050;13.678;2022-12-17T05:59:07;100618.63;;;-3.90;95.25
49341;BME280;35209;51.050;13.678;2022-12-17T06:04:27;100622.00;;;-3.91;95.56
49341;BME280;35209;51.050;13.678;2022-12-17T06:09:47;100621.47;;;-3.83;96.20
49341;BME280;35209;51.050;13.678;2022-12-17T06:15:08;100634.97;;;-3.88;96.54
49341;BME280;35209;51.050;13.678;2022-12-17T06:20:29;100626.66;;;-3.81;96.02
49341;BME280;35209;51.050;13.678;2022-12-17T06:25:53;100629.13;;;-3.84;96.56
49341;BME280;35209;51.050;13.678;2022-12-17T06:31:14;100645.56;;;-3.79;96.50
49341;BME280;35209;51.050;13.678;2022-12-17T06:36:34;100654.91;;;-3.81;96.05
49341;BME280;35209;51.050;13.678;2022-12-17T06:41:54;100649.72;;;-3.83;97.02
49341;BME280;35209;51.050;13.678;2022-12-17T06:47:15;100653.88;;;-3.86;97.54
49341;BME280;35209;51.050;13.678;2022-12-17T06:52:36;100657.47;;;-3.81;97.38
49341;BME280;35209;51.050;13.678;2022-12-17T06:57:59;100662.59;;;-3.81;97.85
49341;BME280;35209;51.050;13.678;2022-12-17T07:03:20;100673.84;;;-3.79;97.89
49341;BME280;35209;51.050;13.678;2022-12-17T07:08:41;100684.44;;;-3.70;97.67
49341;BME280;35209;51.050;13.678;2022-12-17T07:14:02;100698.81;;;-3.75;97.84
49341;BME280;35209;51.050;13.678;2022-12-17T07:19:22;100710.84;;;-3.74;98.53
49341;BME280;35209;51.050;13.678;2022-12-17T07:24:42;100718.66;;;-3.71;98.63
49341;BME280;35209;51.050;13.678;2022-12-17T07:30:03;100723.50;;;-3.55;98.05
49341;BME280;35209;51.050;13.678;2022-12-17T07:35:24;100726.38;;;-3.47;96.83
49341;BME280;35209;51.050;13.678;2022-12-17T07:40:45;100728.69;;;-3.05;94.48
49341;BME280;35209;51.050;13.678;2022-12-17T07:46:05;100734.75;;;-3.03;94.44
49341;BME280;35209;51.050;13.678;2022-12-17T07:51:25;100737.59;;;-2.95;94.01
49341;BME280;35209;51.050;13.678;2022-12-17T07:56:46;100737.47;;;-3.24;95.05
49341;BME280;35209;51.050;13.678;2022-12-17T08:02:09;100748.06;;;-3.15;96.04
49341;BME280;35209;51.050;13.678;2022-12-17T08:07:30;100756.59;;;-3.16;96.50
49341;BME280;35209;51.050;13.678;2022-12-17T08:13:01;100766.06;;;-2.91;95.98
49341;BME280;35209;51.050;13.678;2022-12-17T08:18:22;100773.38;;;-3.01;95.91
49341;BME280;35209;51.050;13.678;2022-12-17T08:23:42;100788.16;;;-3.20;97.51
49341;BME280;35209;51.050;13.678;2022-12-17T08:29:02;100792.06;;;-3.07;98.81
49341;BME280;35209;51.050;13.678;2022-12-17T08:34:22;100799.56;;;-3.13;98.49
49341;BME280;35209;51.050;13.678;2022-12-17T08:39:42;100796.72;;;-2.71;95.81
49341;BME280;35209;51.050;13.678;2022-12-17T08:45:03;100804.97;;;-2.82;96.64
49341;BME280;35209;51.050;13.678;2022-12-17T08:50:24;100814.97;;;-2.65;96.42
49341;BME280;35209;51.050;13.678;2022-12-17T08:55:44;100808.69;;;-2.97;98.95
49341;BME280;35209;51.050;13.678;2022-12-17T09:01:04;100819.53;;;-3.06;100.00
49341;BME280;35209;51.050;13.678;2022-12-17T09:06:25;100820.31;;;-3.09;100.00
49341;BME280;35209;51.050;13.678;2022-12-17T09:11:45;100825.16;;;-2.92;100.00
49341;BME280;35209;51.050;13.678;2022-12-17T09:17:05;100827.59;;;-2.71;100.00
49341;BME280;35209;51.050;13.678;2022-12-17T09:22:25;100835.28;;;-2.73;100.00
49341;BME280;35209;51.050;13.678;2022-12-17T09:27:45;100827.47;;;-2.50;99.13
49341;BME280;35209;51.050;13.678;2022-12-17T09:33:06;100829.19;;;-2.24;98.15
49341;BME280;35209;51.050;13.678;2022-12-17T09:38:26;100835.56;;;-2.13;96.34
49341;BME280;35209;51.050;13.678;2022-12-17T09:43:53;100845.97;;;-2.35;96.90
49341;BME280;35209;51.050;13.678;2022-12-17T09:49:19;100854.06;;;-2.24;98.19
49341;BME280;35209;51.050;13.678;2022-12-17T09:54:48;100861.22;;;-2.16;98.15
49341;BME280;35209;51.050;13.678;2022-12-17T10:00:19;100852.22;;;-2.03;96.90
49341;BME280;35209;51.050;13.678;2022-12-17T10:05:41;100857.22;;;-2.33;98.29
49341;BME280;35209;51.050;13.678;2022-12-17T10:11:23;100871.91;;;-2.56;100.00
49341;BME280;35209;51.050;13.678;2022-12-17T10:16:45;100868.97;;;-2.16;99.26
49341;BME280;35209;51.050;13.678;2022-12-17T10:22:14;100877.81;;;-2.59;100.00
49341;BME280;35209;51.050;13.678;2022-12-17T10:27:42;100877.63;;;-2.63;100.00
49341;BME280;35209;51.050;13.678;2022-12-17T10:33:06;100879.97;;;-2.45;100.00
49341;BME280;35209;51.050;13.678;2022-12-17T10:38:28;100883.44;;;-2.19;100.00
49341;BME280;35209;51.050;13.678;2022-12-17T10:43:49;100899.94;;;-2.13;98.88
49341;BME280;35209;51.050;13.678;2022-12-17T10:49:20;100900.28;;;-2.29;98.81
49341;BME280;35209;51.050;13.678;2022-12-17T10:54:56;100896.66;;;-2.09;98.85
49341;BME280;35209;51.050;13.678;2022-12-17T11:00:35;100897.13;;;-2.20;98.61
49341;BME280;35209;51.050;13.678;2022-12-17T11:05:56;100894.41;;;-2.25;99.64
49341;BME280;35209;51.050;13.678;2022-12-17T11:11:17;100896.75;;;-2.31;100.00
49341;BME280;35209;51.050;13.678;2022-12-17T11:16:49;100904.78;;;-1.96;99.51
49341;BME280;35209;51.050;13.678;2022-12-17T11:22:39;100907.97;;;-1.78;95.02
49341;BME280;35209;51.050;13.678;2022-12-17T11:28:16;100909.63;;;-1.80;96.18
49341;BME280;35209;51.050;13.678;2022-12-17T11:33:45;100904.72;;;-1.72;96.56
49341;BME280;35209;51.050;13.678;2022-12-17T11:39:26;100914.97;;;-1.74;95.61
49341;BME280;35209;51.050;13.678;2022-12-17T11:44:58;100921.34;;;-1.90;97.27
49341;BME280;35209;51.050;13.678;2022-12-17T12:07:01;100919.59;;;-1.37;92.68
49341;BME280;35209;51.050;13.678;2022-12-17T12:18:50;100930.00;;;-1.61;92.77
49341;BME280;35209;51.050;13.678;2022-12-17T12:29:27;100936.13;;;-1.84;94.89
49341;BME280;35209;51.050;13.678;2022-12-17T12:34:51;100932.56;;;-1.61;94.31
49341;BME280;35209;51.050;13.678;2022-12-17T12:40:20;100943.22;;;-1.23;90.49
49341;BME280;35209;51.050;13.678;2022-12-17T12:56:35;100952.28;;;-1.63;92.03
49341;BME280;35209;51.050;13.678;2022-12-17T13:01:56;100956.66;;;-1.60;91.79
49341;BME280;35209;51.050;13.678;2022-12-17T13:07:34;100970.69;;;-1.78;93.15
49341;BME280;35209;51.050;13.678;2022-12-17T13:12:44;100969.81;;;-1.78;94.02
49341;BME280;35209;51.050;13.678;2022-12-17T13:18:28;100974.34;;;-1.71;93.05
49341;BME280;35209;51.050;13.678;2022-12-17T13:23:35;100979.13;;;-1.82;93.29
49341;BME280;35209;51.050;13.678;2022-12-17T13:28:38;100987.47;;;-1.90;94.01
49341;BME280;35209;51.050;13.678;2022-12-17T13:43:53;100996.94;;;-1.89;93.09
49341;BME280;35209;51.050;13.678;2022-12-17T13:49:00;100996.38;;;-2.06;93.62
49341;BME280;35209;51.050;13.678;2022-12-17T13:54:03;101011.09;;;-2.26;94.89
49341;BME280;35209;51.050;13.678;2022-12-17T13:59:05;101010.19;;;-2.28;94.76
49341;BME280;35209;51.050;13.678;2022-12-17T14:04:26;101020.38;;;-2.31;93.63
49341;BME280;35209;51.050;13.678;2022-12-17T14:09:36;101036.38;;;-2.16;93.23
49341;BME280;35209;51.050;13.678;2022-12-17T14:14:45;101040.19;;;-2.05;90.75
49341;BME280;35209;51.050;13.678;2022-12-17T14:19:53;101047.97;;;-2.27;92.31
49341;BME280;35209;51.050;13.678;2022-12-17T14:24:57;101048.19;;;-2.45;93.07
49341;BME280;35209;51.050;13.678;2022-12-17T14:29:59;101065.28;;;-2.47;92.91
49341;BME280;35209;51.050;13.678;2022-12-17T14:35:02;101076.03;;;-2.57;92.98
49341;BME280;35209;51.050;13.678;2022-12-17T14:40:04;101078.19;;;-2.23;91.70
49341;BME280;35209;51.050;13.678;2022-12-17T14:45:27;101075.28;;;-2.32;91.70
49341;BME280;35209;51.050;13.678;2022-12-17T14:50:34;101089.47;;;-2.43;91.47
49341;BME280;35209;51.050;13.678;2022-12-17T14:55:51;101085.16;;;-2.20;89.07
49341;BME280;35209;51.050;13.678;2022-12-17T15:01:05;101102.59;;;-2.36;90.37
49341;BME280;35209;51.050;13.678;2022-12-17T15:06:09;101106.88;;;-2.59;90.67
49341;BME280;35209;51.050;13.678;2022-12-17T15:11:17;101116.00;;;-2.67;91.95
49341;BME280;35209;51.050;13.678;2022-12-17T15:16:20;101111.81;;;-2.65;92.26
49341;BME280;35209;51.050;13.678;2022-12-17T15:21:24;101106.72;;;-2.63;93.12
49341;BME280;35209;51.050;13.678;2022-12-17T15:26:26;101122.53;;;-2.75;94.82
49341;BME280;35209;51.050;13.678;2022-12-17T15:31:28;101118.56;;;-2.67;94.45
49341;BME280;35209;51.050;13.678;2022-12-17T15:36:35;101124.44;;;-2.48;93.78
49341;BME280;35209;51.050;13.678;2022-12-17T15:41:37;101125.25;;;-2.72;94.63
49341;BME280;35209;51.050;13.678;2022-12-17T15:46:58;101119.09;;;-2.75;94.79
49341;BME280;35209;51.050;13.678;2022-12-17T15:51:59;101123.88;;;-2.85;95.47
49341;BME280;35209;51.050;13.678;2022-12-17T15:57:01;101138.25;;;-2.69;94.86
49341;BME280;35209;51.050;13.678;2022-12-17T16:02:03;101128.84;;;-2.89;95.06
49341;BME280;35209;51.050;13.678;2022-12-17T16:07:05;101139.47;;;-3.02;96.50
49341;BME280;35209;51.050;13.678;2022-12-17T16:12:06;101146.34;;;-3.01;96.80
49341;BME280;35209;51.050;13.678;2022-12-17T16:17:08;101146.94;;;-2.88;95.23
49341;BME280;35209;51.050;13.678;2022-12-17T16:22:10;101152.69;;;-2.93;95.71
49341;BME280;35209;51.050;13.678;2022-12-17T16:27:12;101149.75;;;-3.02;95.50
49341;BME280;35209;51.050;13.678;2022-12-17T16:32:15;101151.81;;;-3.15;96.54
49341;BME280;35209;51.050;13.678;2022-12-17T16:37:16;101155.66;;;-3.26;96.59
49341;BME280;35209;51.050;13.678;2022-12-17T16:42:19;101153.13;;;-3.24;96.85
49341;BME280;35209;51.050;13.678;2022-12-17T16:47:20;101172.28;;;-3.37;96.72
49341;BME280;35209;51.050;13.678;2022-12-17T16:52:22;101175.63;;;-3.40;96.98
49341;BME280;35209;51.050;13.678;2022-12-17T16:57:24;101188.59;;;-3.37;96.04
49341;BME280;35209;51.050;13.678;2022-12-17T17:02:26;101185.72;;;-3.44;95.49
49341;BME280;35209;51.050;13.678;2022-12-17T17:07:28;101186.41;;;-3.08;93.41
49341;BME280;35209;51.050;13.678;2022-12-17T17:12:30;101199.22;;;-3.29;93.30
49341;BME280;35209;51.050;13.678;2022-12-17T17:17:32;101196.13;;;-3.41;93.96
49341;BME280;35209;51.050;13.678;2022-12-17T17:22:57;101203.19;;;-3.57;95.61
49341;BME280;35209;51.050;13.678;2022-12-17T17:27:59;101209.13;;;-3.58;96.65
49341;BME280;35209;51.050;13.678;2022-12-17T17:33:01;101209.72;;;-3.44;95.93
49341;BME280;35209;51.050;13.678;2022-12-17T17:38:02;101214.13;;;-3.61;96.47
49341;BME280;35209;51.050;13.678;2022-12-17T17:43:04;101216.91;;;-3.56;97.02
49341;BME280;35209;51.050;13.678;2022-12-17T17:48:06;101219.69;;;-3.71;96.08
49341;BME280;35209;51.050;13.678;2022-12-17T17:53:08;101221.97;;;-3.77;96.56
49341;BME280;35209;51.050;13.678;2022-12-17T17:58:09;101213.16;;;-3.82;96.59
49341;BME280;35209;51.050;13.678;2022-12-17T18:03:14;101214.66;;;-3.87;96.43
49341;BME280;35209;51.050;13.678;2022-12-17T18:08:16;101216.69;;;-3.80;94.55
49341;BME280;35209;51.050;13.678;2022-12-17T18:13:18;101225.59;;;-3.72;93.67
49341;BME280;35209;51.050;13.678;2022-12-17T18:18:38;101235.16;;;-3.89;92.95
49341;BME280;35209;51.050;13.678;2022-12-17T18:23:41;101237.31;;;-4.16;93.27
49341;BME280;35209;51.050;13.678;2022-12-17T18:28:43;101246.84;;;-4.31;93.79
49341;BME280;35209;51.050;13.678;2022-12-17T18:33:51;101257.78;;;-4.35;93.82
49341;BME280;35209;51.050;13.678;2022-12-17T18:38:55;101260.78;;;-4.62;94.24
49341;BME280;35209;51.050;13.678;2022-12-17T18:44:00;101261.31;;;-4.69;94.28
49341;BME280;35209;51.050;13.678;2022-12-17T18:49:06;101270.84;;;-4.83;94.10
49341;BME280;35209;51.050;13.678;2022-12-17T18:54:15;101275.28;;;-4.80;93.99
49341;BME280;35209;51.050;13.678;2022-12-17T18:59:19;101284.41;;;-4.85;93.88
49341;BME280;35209;51.050;13.678;2022-12-17T19:04:29;101287.00;;;-4.85;92.65
49341;BME280;35209;51.050;13.678;2022-12-17T19:09:32;101298.31;;;-5.14;93.24
49341;BME280;35209;51.050;13.678;2022-12-17T19:14:37;101298.41;;;-5.13;94.03
49341;BME280;35209;51.050;13.678;2022-12-17T19:19:38;101295.38;;;-5.22;93.43
49341;BME280;35209;51.050;13.678;2022-12-17T19:24:40;101300.81;;;-5.32;93.96
49341;BME280;35209;51.050;13.678;2022-12-17T19:29:42;101303.38;;;-5.32;92.78
49341;BME280;35209;51.050;13.678;2022-12-17T19:34:52;101315.53;;;-5.61;93.74
49341;BME280;35209;51.050;13.678;2022-12-17T19:39:54;101322.47;;;-5.74;95.27
49341;BME280;35209;51.050;13.678;2022-12-17T19:44:55;101322.88;;;-5.67;94.64
49341;BME280;35209;51.050;13.678;2022-12-17T19:49:57;101319.16;;;-5.88;94.88
49341;BME280;35209;51.050;13.678;2022-12-17T19:54:59;101320.09;;;-6.02;95.91
49341;BME280;35209;51.050;13.678;2022-12-17T20:00:01;101331.25;;;-6.02;96.46
49341;BME280;35209;51.050;13.678;2022-12-17T20:05:13;101322.06;;;-5.82;96.34
49341;BME280;35209;51.050;13.678;2022-12-17T20:10:14;101329.47;;;-6.03;94.38
49341;BME280;35209;51.050;13.678;2022-12-17T20:15:16;101336.63;;;-6.12;95.40
49341;BME280;35209;51.050;13.678;2022-12-17T20:20:18;101331.75;;;-5.93;92.40
49341;BME280;35209;51.050;13.678;2022-12-17T20:25:19;101345.19;;;-6.12;92.34
49341;BME280;35209;51.050;13.678;2022-12-17T20:30:24;101344.44;;;-6.40;93.76
49341;BME280;35209;51.050;13.678;2022-12-17T20:35:26;101353.53;;;-6.45;94.51
49341;BME280;35209;51.050;13.678;2022-12-17T20:40:28;101358.38;;;-6.50;94.85
49341;BME280;35209;51.050;13.678;2022-12-17T20:45:30;101363.75;;;-6.45;93.05
49341;BME280;35209;51.050;13.678;2022-12-17T20:50:32;101369.44;;;-6.64;93.65
49341;BME280;35209;51.050;13.678;2022-12-17T20:55:34;101371.13;;;-6.65;93.69
49341;BME280;35209;51.050;13.678;2022-12-17T21:00:36;101374.22;;;-6.70;94.38
49341;BME280;35209;51.050;13.678;2022-12-17T21:05:38;101370.59;;;-6.74;94.52
49341;BME280;35209;51.050;13.678;2022-12-17T21:10:39;101375.16;;;-6.83;94.29
49341;BME280;35209;51.050;13.678;2022-12-17T21:15:56;101383.91;;;-6.79;94.40
49341;BME280;35209;51.050;13.678;2022-12-17T21:21:07;101385.59;;;-6.80;93.74
49341;BME280;35209;51.050;13.678;2022-12-17T21:26:29;101396.34;;;-6.86;93.17
49341;BME280;35209;51.050;13.678;2022-12-17T21:31:37;101393.72;;;-7.00;93.79
49341;BME280;35209;51.050;13.678;2022-12-17T21:36:41;101391.50;;;-7.09;94.38
49341;BME280;35209;51.050;13.678;2022-12-17T21:41:48;101407.09;;;-7.04;95.29
49341;BME280;35209;51.050;13.678;2022-12-17T21:52:52;101421.19;;;-7.11;95.03
49341;BME280;35209;51.050;13.678;2022-12-17T21:58:31;101420.00;;;-7.03;93.06
49341;BME280;35209;51.050;13.678;2022-12-17T22:03:35;101418.25;;;-7.17;91.64
49341;BME280;35209;51.050;13.678;2022-12-17T22:09:13;101421.03;;;-7.27;92.02
49341;BME280;35209;51.050;13.678;2022-12-17T22:14:32;101419.59;;;-7.37;92.59
49341;BME280;35209;51.050;13.678;2022-12-17T22:20:00;101429.22;;;-7.46;92.84
49341;BME280;35209;51.050;13.678;2022-12-17T22:25:38;101425.00;;;-7.46;92.89
49341;BME280;35209;51.050;13.678;2022-12-17T22:30:55;101441.72;;;-7.51;92.64
49341;BME280;35209;51.050;13.678;2022-12-17T22:36:20;101443.84;;;-7.44;92.55
49341;BME280;35209;51.050;13.678;2022-12-17T22:41:42;101443.19;;;-7.54;91.79
49341;BME280;35209;51.050;13.678;2022-12-17T22:47:22;101457.94;;;-7.64;90.23
49341;BME280;35209;51.050;13.678;2022-12-17T22:52:24;101461.66;;;-7.72;89.82
49341;BME280;35209;51.050;13.678;2022-12-17T22:57:26;101459.19;;;-7.70;89.54
49341;BME280;35209;51.050;13.678;2022-12-17T23:02:38;101459.91;;;-7.73;89.62
49341;BME280;35209;51.050;13.678;2022-12-17T23:07:40;101469.31;;;-7.58;88.83
49341;BME280;35209;51.050;13.678;2022-12-17T23:12:42;101469.09;;;-7.75;89.41
49341;BME280;35209;51.050;13.678;2022-12-17T23:17:56;101468.03;;;-7.92;90.21
49341;BME280;35209;51.050;13.678;2022-12-17T23:22:59;101476.75;;;-8.01;90.39
49341;BME280;35209;51.050;13.678;2022-12-17T23:28:01;101470.66;;;-8.03;89.87
49341;BME280;35209;51.050;13.678;2022-12-17T23:33:03;101491.34;;;-8.12;90.22
49341;BME280;35209;51.050;13.678;2022-12-17T23:38:05;101496.47;;;-7.99;89.04
49341;BME280;35209;51.050;13.678;2022-12-17T23:43:06;101487.88;;;-8.26;89.57
49341;BME280;35209;51.050;13.678;2022-12-17T23:48:13;101485.34;;;-8.26;90.38
49341;BME280;35209;51.050;13.678;2022-12-17T23:53:15;101483.16;;;-8.33;90.00
49341;BME280;35209;51.050;13.678;2022-12-17T23:58:16;101481.78;;;-8.28;89.94
